createdAt,value
2018-09-21T00:00:23.142Z,64.2
2018-09-21T00:05:23.315Z,64.1
2018-09-21T00:10:23.137Z,64
2018-09-21T00:15:23.234Z,64.1
2018-09-21T00:20:23.179Z,64.7
2018-09-21T00:25:22.994Z,64.6
2018-09-21T00:30:23.167Z,64.8
2018-09-21T00:35:23.167Z,64.8
2018-09-21T00:40:23.409Z,65.1
2018-09-21T00:45:22.984Z,64.9
2018-09-21T00:50:23.191Z,65.1
2018-09-21T00:55:22.910Z,65.2
2018-09-21T01:00:23.275Z,65.1
2018-09-21T01:05:23.986Z,65.3
2018-09-21T01:10:23.497Z,65.6
2018-09-21T01:15:23.055Z,65.6
2018-09-21T01:20:23.325Z,65.5
2018-09-21T01:25:23.401Z,65.6
2018-09-21T01:30:23.343Z,65.5
2018-09-21T01:35:23.025Z,65.6
2018-09-21T01:40:23.165Z,65.6
2018-09-21T01:45:23.494Z,65.7
2018-09-21T01:50:23.145Z,65.6
2018-09-21T01:55:23.535Z,66
2018-09-21T02:00:23.061Z,66.1
2018-09-21T02:05:23.878Z,66.1
2018-09-21T02:10:23.339Z,65.9
2018-09-21T02:15:23.002Z,66.7
2018-09-21T02:20:22.750Z,67.1
2018-09-21T02:25:22.981Z,66.3
2018-09-21T02:30:22.684Z,67.3
2018-09-21T02:35:23.301Z,67.2
2018-09-21T02:40:23.022Z,67.8
2018-09-21T02:45:23.021Z,67.9
2018-09-21T02:50:23.031Z,67.7
2018-09-21T02:55:23.572Z,68.3
2018-09-21T03:00:22.846Z,68.2
2018-09-21T03:05:22.743Z,68.5
2018-09-21T03:10:22.940Z,67.9
2018-09-21T03:15:22.724Z,68.1
2018-09-21T03:20:22.866Z,68.1
2018-09-21T03:25:23.760Z,68
2018-09-21T03:30:22.867Z,68.4
2018-09-21T03:35:22.857Z,68.5
2018-09-21T03:40:23.068Z,68.2
2018-09-21T03:45:23.102Z,66.9
2018-09-21T03:50:22.641Z,67.2
2018-09-21T03:55:22.550Z,66.7
2018-09-21T04:00:22.700Z,66.4
2018-09-21T04:05:22.812Z,65.7
2018-09-21T04:10:22.740Z,66
2018-09-21T04:15:22.625Z,65.7
2018-09-21T04:20:22.505Z,65.7
2018-09-21T04:25:22.694Z,65.7
2018-09-21T04:30:22.783Z,65.2
2018-09-21T04:35:22.824Z,65.1
2018-09-21T04:40:22.533Z,65
2018-09-21T04:45:22.595Z,65.4
2018-09-21T04:50:22.853Z,68.4
2018-09-21T04:55:22.709Z,68.4
2018-09-21T05:00:22.704Z,67.3
2018-09-21T05:05:22.523Z,67.9
2018-09-21T05:10:22.668Z,71.7
2018-09-21T05:15:22.628Z,71.8
2018-09-21T05:20:22.692Z,71.2
2018-09-21T05:25:22.773Z,69.7
2018-09-21T05:30:22.630Z,70.9
2018-09-21T05:35:22.613Z,73.6
2018-09-21T05:40:22.502Z,81.8
2018-09-21T05:45:22.595Z,83.3
2018-09-21T05:50:22.627Z,84.4
2018-09-21T05:55:22.771Z,84.2
2018-09-21T06:00:22.569Z,87
2018-09-21T06:05:22.819Z,87.7
2018-09-21T06:10:22.415Z,88.8
2018-09-21T06:15:22.473Z,89.2
2018-09-21T06:20:22.439Z,91
2018-09-21T06:25:22.591Z,90.4
2018-09-21T06:30:22.354Z,95.7
2018-09-21T06:35:22.579Z,92
2018-09-21T06:40:22.492Z,88.6
2018-09-21T06:45:22.348Z,88.7
2018-09-21T06:50:22.515Z,89.5
2018-09-21T06:55:22.738Z,86.9
2018-09-21T07:00:22.662Z,87.1
2018-09-21T07:05:22.520Z,86
2018-09-21T07:10:22.985Z,85.4
2018-09-21T07:15:22.460Z,86.5
2018-09-21T07:20:22.377Z,79.7
2018-09-21T07:25:22.496Z,72.2
2018-09-21T07:30:22.504Z,73.3
2018-09-21T07:35:22.595Z,72.2
2018-09-21T07:40:22.444Z,71.6
2018-09-21T07:45:22.519Z,70.7
2018-09-21T07:50:22.776Z,69.4
2018-09-21T07:55:22.887Z,70.3
2018-09-21T08:00:22.782Z,69
2018-09-21T08:05:22.609Z,69.4
2018-09-21T08:10:22.610Z,68.1
2018-09-21T08:15:22.573Z,67.1
2018-09-21T08:20:22.654Z,67.6
2018-09-21T08:25:22.791Z,69.1
2018-09-21T08:30:23.713Z,70.2
2018-09-21T08:35:22.641Z,68.3
2018-09-21T08:40:22.673Z,69.4
2018-09-21T08:45:22.829Z,67.4
2018-09-21T08:50:22.472Z,66
2018-09-21T08:55:22.537Z,61.9
2018-09-21T09:00:22.821Z,58.7
2018-09-21T09:05:22.561Z,64.2
2018-09-21T09:10:22.978Z,70.2
2018-09-21T09:15:23.031Z,73.5
2018-09-21T09:20:22.585Z,76.4
2018-09-21T09:25:22.633Z,76.2
2018-09-21T09:30:22.878Z,71.6
2018-09-21T09:35:22.556Z,75.7
2018-09-21T09:40:22.805Z,75.9
2018-09-21T09:45:22.423Z,74.5
2018-09-21T09:50:22.917Z,71.2
2018-09-21T09:55:22.530Z,66.1
2018-09-21T10:00:22.550Z,63.5
2018-09-21T10:05:22.349Z,62.6
2018-09-21T10:10:22.499Z,63.4
2018-09-21T10:15:22.186Z,63.9
2018-09-21T10:20:22.687Z,62.3
2018-09-21T10:25:22.395Z,61.8
2018-09-21T10:30:22.365Z,59.7
2018-09-21T10:35:22.230Z,59.2
2018-09-21T10:40:22.670Z,60.4
2018-09-21T10:45:22.466Z,61.2
2018-09-21T10:50:22.299Z,59.1
2018-09-21T10:55:22.587Z,59
2018-09-21T11:00:22.327Z,58.3
2018-09-21T11:05:22.207Z,58.1
2018-09-21T11:10:22.533Z,55.6
2018-09-21T11:15:22.413Z,58
2018-09-21T11:20:22.410Z,56
2018-09-21T11:25:22.142Z,54.5
2018-09-21T11:30:22.635Z,53.3
2018-09-21T11:35:22.222Z,54.2
2018-09-21T11:40:22.549Z,55.4
2018-09-21T11:45:22.306Z,54.1
2018-09-21T11:50:22.289Z,54.2
2018-09-21T11:55:22.176Z,55.4
2018-09-21T12:00:22.180Z,55.3
2018-09-21T12:05:22.021Z,54.7
2018-09-21T12:10:22.227Z,54.5
2018-09-21T12:15:22.276Z,50.8
2018-09-21T12:20:22.647Z,49.5
2018-09-21T12:26:28.408Z,48.2
2018-09-21T12:40:34.823Z,60.7
2018-09-21T12:45:28.377Z,46.6
2018-09-21T12:50:27.975Z,49.5
2018-09-21T12:55:30.729Z,44.4
2018-09-21T13:00:27.868Z,44.1
2018-09-21T13:10:41.285Z,43.2
2018-09-21T13:25:32.437Z,44
2018-09-21T13:30:33.361Z,45.6
2018-09-21T13:35:27.887Z,45.1
2018-09-21T13:40:27.953Z,43.8
2018-09-21T13:45:27.853Z,43.8
2018-09-21T13:50:27.885Z,44.1
2018-09-21T13:55:28.091Z,45.4
2018-09-21T14:00:28.370Z,46.9
2018-09-21T14:05:27.958Z,43.5
2018-09-21T14:10:28.789Z,43
2018-09-21T14:15:29.293Z,43.5
2018-09-21T14:20:28.430Z,44
2018-09-21T14:25:28.895Z,43.3
2018-09-21T14:30:27.894Z,44.1
2018-09-21T14:35:28.339Z,44.4
2018-09-21T14:40:28.717Z,46.1
2018-09-21T14:45:29.235Z,46.7
2018-09-21T14:50:28.403Z,45.9
2018-09-21T14:55:28.853Z,43.4
2018-09-21T15:00:28.994Z,44.2
2018-09-21T15:05:29.043Z,44.9
2018-09-21T15:10:28.564Z,45.6
2018-09-21T15:15:27.828Z,45.3
2018-09-21T15:20:28.574Z,46.2
2018-09-21T15:25:27.923Z,46.7
2018-09-21T15:30:28.349Z,50.4
2018-09-21T15:35:28.399Z,55.9
2018-09-21T15:40:28.330Z,54.4
2018-09-21T15:45:29.719Z,55.3
2018-09-21T15:50:28.056Z,52.8
2018-09-21T15:55:28.462Z,50.3
2018-09-21T16:00:28.231Z,50.4
2018-09-21T16:05:27.880Z,50.7
2018-09-21T16:10:28.293Z,51.9
2018-09-21T16:15:28.690Z,52.5
2018-09-21T16:20:28.244Z,51.8
2018-09-21T16:25:27.989Z,51.2
2018-09-21T16:30:28.234Z,56.2
2018-09-21T16:35:28.682Z,67.6
2018-09-21T16:40:28.385Z,71.9
2018-09-21T16:45:27.826Z,74.1
2018-09-21T16:50:28.085Z,74.3
2018-09-21T16:55:28.329Z,74.3
2018-09-21T17:00:27.965Z,78.8
2018-09-21T17:05:28.075Z,80.3
2018-09-21T17:10:27.866Z,76.8
2018-09-21T17:15:28.304Z,75.9
2018-09-21T17:20:27.779Z,77.9
2018-09-21T17:25:28.208Z,76.7
2018-09-21T17:30:28.114Z,77.6
2018-09-21T17:35:27.591Z,79.7
2018-09-21T17:40:27.768Z,79
2018-09-21T17:45:27.865Z,79.1
2018-09-21T17:50:27.710Z,75.5
2018-09-21T17:55:27.735Z,72.5
2018-09-21T18:00:27.516Z,85.6
2018-09-21T18:05:27.439Z,86
2018-09-21T18:10:27.773Z,85.4
2018-09-21T18:15:27.765Z,87.7
2018-09-21T18:20:27.645Z,85.1
2018-09-21T18:25:27.863Z,85.8
2018-09-21T18:30:27.445Z,86.9
2018-09-21T18:35:27.533Z,90.1
2018-09-21T18:40:27.504Z,85.1
2018-09-21T18:45:27.394Z,84.3
2018-09-21T18:50:27.699Z,83
2018-09-21T18:55:27.678Z,81.8
2018-09-21T19:00:27.637Z,80
2018-09-21T19:05:27.431Z,81.4
2018-09-21T19:10:27.673Z,83.1
2018-09-21T19:15:27.751Z,82.8
2018-09-21T19:20:27.744Z,83.9
2018-09-21T19:25:28.049Z,82.4
2018-09-21T19:30:27.772Z,82.8
2018-09-21T19:35:27.766Z,83.6
2018-09-21T19:40:27.658Z,82.4
2018-09-21T19:45:27.549Z,84.6
2018-09-21T19:50:27.664Z,83.1
2018-09-21T19:55:27.714Z,82.8
2018-09-21T20:00:28.325Z,83
2018-09-21T20:05:27.607Z,84.1
2018-09-21T20:10:27.682Z,82.8
2018-09-21T20:15:27.689Z,76.7
2018-09-21T20:20:27.740Z,79.6
2018-09-21T20:25:27.280Z,78.9
2018-09-21T20:30:27.790Z,80.6
2018-09-21T20:35:27.691Z,80.3
2018-09-21T20:40:27.284Z,80.4
2018-09-21T20:45:27.592Z,79.3
2018-09-21T20:50:27.303Z,74
2018-09-21T20:55:27.408Z,73.7
2018-09-21T21:00:27.258Z,73.7
2018-09-21T21:05:27.564Z,74
2018-09-21T21:10:27.380Z,73.7
2018-09-21T21:15:27.305Z,73.5
2018-09-21T21:20:27.407Z,72.8
2018-09-21T21:25:27.748Z,71.9
2018-09-21T21:30:27.163Z,70.8
2018-09-21T21:35:27.412Z,71.6
2018-09-21T21:40:27.388Z,71.5
2018-09-21T21:45:27.383Z,71.9
2018-09-21T21:50:27.182Z,71.6
2018-09-21T21:55:27.134Z,73.4
2018-09-21T22:00:27.419Z,72.7
2018-09-21T22:05:27.409Z,71.9
2018-09-21T22:10:27.321Z,72.3
2018-09-21T22:15:27.341Z,69
2018-09-21T22:20:27.228Z,69.8
2018-09-21T22:25:27.673Z,68.5
2018-09-21T22:30:27.458Z,69.4
2018-09-21T22:35:27.058Z,70.2
2018-09-21T22:40:27.203Z,69.3
2018-09-21T22:45:27.277Z,69.1
2018-09-21T22:50:26.991Z,68.1
2018-09-21T22:55:27.247Z,66.9
2018-09-21T23:00:27.243Z,67.6
2018-09-21T23:05:27.214Z,67.8
2018-09-21T23:10:27.443Z,69.6
2018-09-21T23:15:27.296Z,71.9
2018-09-21T23:20:27.331Z,74.2
2018-09-21T23:25:27.278Z,74
2018-09-21T23:30:27.374Z,74.3
2018-09-21T23:35:27.252Z,74.8
2018-09-21T23:40:27.485Z,75.4
2018-09-21T23:45:27.059Z,75.2
2018-09-21T23:50:27.262Z,75.2
2018-09-21T23:55:27.299Z,75
